Time;durP1;ratioP1;P1;durP2;ratioP2;P2;SDS_P1;SDS_P2;PMS_P1;PMS_P2;Temp;Humidity;BMP_temperature;BMP_pressure;BME280_temperature;BME280_humidity;BME280_pressure;Samples;Min_cycle;Max_cycle;Signal;HPM_P1;HPM_P2
2022/03/14 00:01:55;;;;;;;17.35;11.55;;;9.30;82.80;;;;;;5035919;28;20482;-83
2022/03/14 00:04:21;;;;;;;17.10;10.23;;;9.20;82.80;;;;;;5045727;28;20812;-83
2022/03/14 00:06:48;;;;;;;20.30;11.30;;;9.20;83.20;;;;;;5029809;28;20044;-84
2022/03/14 00:09:14;;;;;;;18.23;10.95;;;9.20;83.50;;;;;;5033449;28;20060;-84
2022/03/14 00:11:40;;;;;;;17.70;10.75;;;9.20;84.00;;;;;;5023436;28;20110;-84
2022/03/14 00:14:08;;;;;;;18.70;11.93;;;9.20;84.10;;;;;;5048818;28;20052;-84
2022/03/14 00:16:43;;;;;;;17.33;10.43;;;9.20;84.90;;;;;;5028107;28;20053;-84
2022/03/14 00:19:09;;;;;;;17.15;10.68;;;9.20;86.40;;;;;;5023208;28;20122;-83
2022/03/14 00:21:38;;;;;;;17.67;11.57;;;9.30;86.10;;;;;;5054123;28;20163;-84
2022/03/14 00:24:06;;;;;;;16.45;10.95;;;9.30;86.20;;;;;;5050204;28;20045;-84
2022/03/14 00:26:33;;;;;;;16.08;10.68;;;9.40;87.00;;;;;;5026963;28;20057;-84
2022/03/14 00:28:59;;;;;;;16.27;10.40;;;9.40;87.70;;;;;;5032951;28;20044;-84
2022/03/14 00:31:24;;;;;;;16.70;10.25;;;9.50;88.40;;;;;;5031051;28;20676;-84
2022/03/14 00:33:50;;;;;;;17.63;10.73;;;9.50;88.60;;;;;;5037069;28;20084;-83
2022/03/14 00:36:16;;;;;;;17.23;10.50;;;9.60;90.00;;;;;;5024304;28;20685;-84
2022/03/14 00:38:42;;;;;;;18.27;11.02;;;9.60;90.10;;;;;;5031645;28;20053;-83
2022/03/14 00:41:08;;;;;;;16.83;10.05;;;9.60;90.20;;;;;;5056891;28;20053;-83
2022/03/14 00:43:35;;;;;;;13.63;8.15;;;9.60;90.50;;;;;;5021470;28;20583;-84
2022/03/14 00:46:01;;;;;;;13.43;8.55;;;9.70;91.50;;;;;;5036635;28;20102;-83
2022/03/14 00:48:27;;;;;;;15.60;8.98;;;9.60;91.30;;;;;;5031914;28;20056;-84
2022/03/14 00:50:54;;;;;;;16.88;9.75;;;9.70;91.80;;;;;;5034790;28;20040;-84
2022/03/14 00:53:20;;;;;;;14.50;7.93;;;9.60;91.80;;;;;;5033595;28;20068;-84
2022/03/14 00:55:45;;;;;;;13.18;8.10;;;9.60;92.30;;;;;;5030687;28;20599;-84
2022/03/14 00:58:12;;;;;;;13.48;8.68;;;9.60;92.90;;;;;;5054449;28;20059;-83
2022/03/14 01:00:38;;;;;;;15.10;8.13;;;9.60;93.10;;;;;;5032913;28;20049;-84
2022/03/14 01:03:04;;;;;;;12.48;7.57;;;9.80;93.80;;;;;;5047086;28;20059;-84
2022/03/14 01:05:30;;;;;;;14.73;8.13;;;9.60;93.60;;;;;;5053214;28;20056;-83
2022/03/14 01:07:55;;;;;;;13.85;8.85;;;9.60;94.30;;;;;;5035652;28;20102;-83
2022/03/14 01:10:22;;;;;;;13.52;7.65;;;9.70;94.50;;;;;;5063615;28;21030;-83
2022/03/14 01:12:48;;;;;;;16.60;7.97;;;9.70;94.20;;;;;;5034041;28;20040;-83
2022/03/14 01:15:15;;;;;;;12.57;7.50;;;9.70;94.30;;;;;;5035073;28;20052;-83
2022/03/14 01:17:41;;;;;;;12.98;7.90;;;9.70;94.30;;;;;;5033218;28;20052;-83
2022/03/14 01:20:08;;;;;;;13.68;8.20;;;9.80;94.70;;;;;;5035091;28;20083;-83
2022/03/14 01:22:35;;;;;;;13.35;7.90;;;9.70;94.40;;;;;;5031194;28;20113;-83
2022/03/14 01:25:02;;;;;;;13.70;7.88;;;9.70;94.50;;;;;;5033025;28;20056;-83
2022/03/14 01:27:28;;;;;;;14.70;7.78;;;9.90;94.70;;;;;;5033430;28;20049;-83
2022/03/14 01:29:55;;;;;;;13.05;8.02;;;9.80;94.70;;;;;;5034460;28;20056;-83
2022/03/14 01:32:21;;;;;;;13.98;8.35;;;9.80;94.70;;;;;;5050300;28;20579;-83
2022/03/14 01:34:46;;;;;;;12.60;7.80;;;9.80;95.00;;;;;;5050140;28;20101;-83
2022/03/14 01:37:12;;;;;;;12.60;7.75;;;9.70;95.80;;;;;;5031166;28;20045;-83
2022/03/14 01:39:38;;;;;;;11.82;7.20;;;9.80;95.50;;;;;;5034656;28;20495;-83
2022/03/14 01:42:04;;;;;;;16.85;7.65;;;9.80;95.50;;;;;;5029441;28;20784;-83
2022/03/14 01:44:30;;;;;;;10.95;7.35;;;9.80;95.60;;;;;;5052121;28;20040;-83
2022/03/14 01:46:56;;;;;;;14.13;7.53;;;9.80;95.90;;;;;;5052260;28;20087;-83
2022/03/14 01:49:22;;;;;;;12.77;7.85;;;9.80;95.90;;;;;;5030080;28;20148;-83
2022/03/14 01:51:52;;;;;;;12.35;6.78;;;9.80;96.30;;;;;;5030630;28;20778;-83
2022/03/14 01:54:18;;;;;;;12.05;6.88;;;9.70;96.40;;;;;;5052668;28;20041;-83
2022/03/14 01:56:45;;;;;;;12.35;6.90;;;9.70;97.20;;;;;;5051266;28;20487;-83
2022/03/14 01:59:11;;;;;;;13.70;7.32;;;9.70;96.70;;;;;;5032124;28;20482;-83
2022/03/14 02:01:37;;;;;;;10.95;7.10;;;9.70;97.00;;;;;;5031688;28;20056;-83
2022/03/14 02:04:03;;;;;;;12.32;7.55;;;9.70;97.10;;;;;;5022240;28;20488;-83
2022/03/14 02:06:28;;;;;;;11.35;6.97;;;9.70;97.60;;;;;;5036662;28;20159;-83
2022/03/14 02:08:55;;;;;;;12.98;7.07;;;9.70;97.70;;;;;;5033896;28;20076;-83
2022/03/14 02:11:21;;;;;;;11.00;7.13;;;9.60;97.80;;;;;;5032527;28;20087;-83
2022/03/14 02:13:47;;;;;;;9.77;6.05;;;9.70;98.00;;;;;;5060909;28;20048;-83
2022/03/14 02:16:13;;;;;;;10.38;6.22;;;9.70;97.90;;;;;;5029942;28;20056;-83
2022/03/14 02:18:39;;;;;;;10.55;6.28;;;9.70;98.10;;;;;;5028781;28;20048;-83
2022/03/14 02:21:08;;;;;;;11.05;6.32;;;9.60;97.90;;;;;;5025999;28;20045;-83
2022/03/14 02:23:34;;;;;;;10.15;6.22;;;9.60;98.10;;;;;;5031383;28;20076;-83
2022/03/14 02:26:00;;;;;;;9.52;6.03;;;9.60;98.50;;;;;;5052805;28;20135;-83
2022/03/14 02:28:27;;;;;;;10.73;6.07;;;9.60;98.70;;;;;;5046856;28;20037;-83
2022/03/14 02:30:53;;;;;;;9.73;5.95;;;10.40;98.60;;;;;;5033394;28;20056;-83
2022/03/14 02:33:20;;;;;;;11.05;6.13;;;9.60;98.90;;;;;;5031792;28;20045;-83
2022/03/14 02:35:49;;;;;;;9.60;5.97;;;9.70;98.70;;;;;;5034305;28;20560;-83
2022/03/14 02:38:19;;;;;;;10.15;6.38;;;9.70;99.00;;;;;;5031671;28;20053;-83
2022/03/14 02:40:47;;;;;;;11.20;6.18;;;9.70;98.70;;;;;;5035694;28;20079;-83
2022/03/14 02:43:15;;;;;;;10.77;5.30;;;9.70;98.90;;;;;;5051241;28;20079;-83
2022/03/14 02:45:42;;;;;;;9.35;5.30;;;9.70;99.20;;;;;;5053611;28;20076;-83
2022/03/14 02:48:08;;;;;;;10.75;5.70;;;9.80;99.50;;;;;;5050203;28;20806;-83
2022/03/14 02:50:37;;;;;;;8.65;5.82;;;9.70;99.10;;;;;;5034375;28;20099;-83
2022/03/14 02:53:03;;;;;;;9.98;5.45;;;9.60;99.20;;;;;;5035910;28;20074;-84
2022/03/14 02:55:28;;;;;;;9.48;5.32;;;9.60;99.80;;;;;;5052963;28;20654;-84
2022/03/14 02:57:54;;;;;;;9.45;5.28;;;9.60;99.60;;;;;;5034363;28;20045;-84
2022/03/14 03:00:19;;;;;;;8.65;5.00;;;9.60;99.90;;;;;;5062949;28;20045;-83
2022/03/14 03:02:45;;;;;;;9.57;5.85;;;9.60;99.90;;;;;;5032242;28;20085;-83
2022/03/14 03:05:11;;;;;;;12.13;5.85;;;9.60;99.90;;;;;;5026185;28;20596;-84
2022/03/14 03:07:37;;;;;;;9.48;5.40;;;9.60;99.90;;;;;;5054180;28;20575;-84
2022/03/14 03:10:04;;;;;;;9.32;5.65;;;9.60;99.90;;;;;;5056080;28;20136;-84
2022/03/14 03:12:33;;;;;;;10.23;5.60;;;9.50;99.90;;;;;;5047334;28;20045;-84
2022/03/14 03:14:59;;;;;;;8.90;5.40;;;9.60;99.90;;;;;;5050879;28;20140;-83
2022/03/14 03:17:25;;;;;;;9.15;5.50;;;9.70;99.90;;;;;;5036617;28;20048;-84
2022/03/14 03:19:50;;;;;;;8.70;5.38;;;9.50;99.90;;;;;;5045316;28;20786;-83
2022/03/14 03:22:17;;;;;;;10.70;5.50;;;9.50;99.90;;;;;;5034935;28;20122;-84
2022/03/14 03:24:42;;;;;;;9.43;5.43;;;9.50;99.90;;;;;;5030146;28;20143;-83
2022/03/14 03:27:08;;;;;;;8.20;5.10;;;9.50;99.90;;;;;;5032723;28;20161;-84
2022/03/14 03:29:33;;;;;;;8.15;5.07;;;9.50;99.90;;;;;;5029956;28;20679;-83
2022/03/14 03:31:59;;;;;;;9.05;5.05;;;9.50;99.90;;;;;;5031144;28;20052;-83
2022/03/14 03:34:25;;;;;;;7.95;4.72;;;9.40;99.90;;;;;;5068015;28;20191;-84
2022/03/14 03:36:51;;;;;;;8.80;5.05;;;9.40;99.90;;;;;;5053597;28;20135;-83
2022/03/14 03:39:17;;;;;;;7.38;4.45;;;9.40;99.90;;;;;;5063538;28;20040;-84
2022/03/14 03:41:42;;;;;;;7.45;4.40;;;9.70;99.90;;;;;;5048401;28;20045;-84
2022/03/14 03:44:08;;;;;;;8.20;4.47;;;9.40;99.90;;;;;;5030519;28;20057;-83
2022/03/14 03:46:34;;;;;;;10.13;5.00;;;9.40;99.90;;;;;;5045966;28;20421;-84
2022/03/14 03:48:59;;;;;;;8.10;4.90;;;9.40;99.90;;;;;;5055193;28;20582;-83
2022/03/14 03:51:25;;;;;;;7.30;4.35;;;9.40;99.90;;;;;;5048088;28;20079;-83
2022/03/14 03:53:51;;;;;;;7.88;4.63;;;9.40;99.90;;;;;;5023590;28;20114;-83
2022/03/14 03:56:16;;;;;;;9.23;4.25;;;9.40;99.90;;;;;;5023106;28;20044;-84
2022/03/14 03:58:42;;;;;;;7.38;3.90;;;9.40;99.90;;;;;;5035733;28;20134;-84
2022/03/14 04:01:08;;;;;;;7.20;4.00;;;9.30;99.90;;;;;;5028456;28;20053;-83
2022/03/14 04:03:35;;;;;;;6.90;3.90;;;9.30;99.90;;;;;;5025151;28;20053;-84
2022/03/14 04:06:01;;;;;;;7.38;3.72;;;9.50;99.90;;;;;;5021803;28;20044;-84
2022/03/14 04:08:30;;;;;;;6.60;3.58;;;9.30;99.90;;;;;;5042479;28;20041;-83
2022/03/14 04:10:58;;;;;;;7.00;3.60;;;9.30;99.90;;;;;;5032496;28;20203;-83
2022/03/14 04:13:26;;;;;;;5.82;3.75;;;9.30;99.90;;;;;;5051019;28;20681;-83
2022/03/14 04:15:54;;;;;;;6.55;3.70;;;9.30;99.90;;;;;;5047839;28;20060;-84
2022/03/14 04:18:20;;;;;;;10.40;4.00;;;9.30;99.90;;;;;;5034973;28;20087;-84
2022/03/14 04:20:47;;;;;;;7.45;4.28;;;9.30;99.90;;;;;;5024254;28;20762;-84
2022/03/14 04:23:13;;;;;;;6.47;3.75;;;9.30;99.90;;;;;;5035310;28;20048;-83
2022/03/14 04:25:39;;;;;;;5.95;3.25;;;9.30;99.90;;;;;;5037276;28;20549;-83
2022/03/14 04:28:05;;;;;;;6.93;3.58;;;9.30;99.90;;;;;;5034834;28;20049;-83
2022/03/14 04:30:30;;;;;;;5.90;3.38;;;9.30;99.90;;;;;;5037338;28;20396;-83
2022/03/14 04:32:56;;;;;;;5.78;3.28;;;9.30;99.90;;;;;;5033664;28;20041;-84
2022/03/14 04:35:22;;;;;;;6.15;3.42;;;9.40;99.90;;;;;;5030820;28;20056;-84
2022/03/14 04:37:47;;;;;;;5.65;3.08;;;9.30;99.90;;;;;;5036651;28;20036;-84
2022/03/14 04:40:14;;;;;;;6.05;3.13;;;9.20;99.90;;;;;;5030255;28;20084;-84
2022/03/14 04:42:40;;;;;;;5.63;3.00;;;9.30;99.90;;;;;;5034939;28;20143;-84
2022/03/14 04:45:06;;;;;;;5.65;3.00;;;9.30;99.90;;;;;;5032077;28;20056;-84
2022/03/14 04:47:32;;;;;;;4.50;2.42;;;9.30;99.90;;;;;;5035910;28;20058;-84
2022/03/14 04:49:58;;;;;;;5.22;2.97;;;9.40;99.90;;;;;;5032442;28;20048;-84
2022/03/14 04:52:24;;;;;;;6.03;3.17;;;9.40;99.90;;;;;;5051310;28;20049;-84
2022/03/14 04:54:50;;;;;;;5.75;2.85;;;9.40;99.90;;;;;;5034906;28;20138;-83
2022/03/14 04:57:15;;;;;;;4.65;2.50;;;9.40;99.90;;;;;;5033400;28;20044;-84
2022/03/14 04:59:41;;;;;;;4.78;2.58;;;9.90;99.90;;;;;;5033831;28;20048;-84
2022/03/14 05:02:07;;;;;;;5.32;2.78;;;9.40;99.90;;;;;;5031367;28;20940;-84
2022/03/14 05:04:34;;;;;;;4.97;2.65;;;9.40;99.90;;;;;;5049164;28;20052;-84
2022/03/14 05:07:00;;;;;;;4.53;2.38;;;9.50;99.90;;;;;;5031514;28;20110;-84
2022/03/14 05:09:26;;;;;;;5.05;2.60;;;9.50;99.90;;;;;;5034594;28;20041;-84
2022/03/14 05:11:51;;;;;;;5.15;2.72;;;9.80;99.90;;;;;;5029490;28;20131;-84
2022/03/14 05:14:17;;;;;;;5.82;3.00;;;9.50;99.90;;;;;;5027835;28;20568;-84
2022/03/14 05:16:43;;;;;;;6.57;3.00;;;9.50;99.90;;;;;;5024002;28;20057;-84
2022/03/14 05:19:09;;;;;;;5.45;2.97;;;9.60;99.90;;;;;;5037223;28;20381;-84
2022/03/14 05:21:34;;;;;;;5.57;2.63;;;10.20;99.90;;;;;;5045530;28;20059;-84
2022/03/14 05:24:00;;;;;;;5.53;2.75;;;9.70;99.90;;;;;;5028818;28;20044;-83
2022/03/14 05:26:26;;;;;;;5.65;2.60;;;9.50;99.90;;;;;;5034366;28;20037;-84
2022/03/14 05:28:51;;;;;;;4.55;2.35;;;9.50;99.90;;;;;;5055250;28;20087;-84
2022/03/14 05:31:17;;;;;;;7.15;2.80;;;9.50;99.90;;;;;;5052996;28;20105;-84
2022/03/14 05:33:43;;;;;;;7.45;2.65;;;9.50;99.90;;;;;;5054257;28;20060;-83
2022/03/14 05:36:08;;;;;;;5.05;2.67;;;9.50;99.90;;;;;;5052459;28;20060;-83
2022/03/14 05:38:34;;;;;;;4.95;2.78;;;9.40;99.90;;;;;;5067785;28;20053;-83
2022/03/14 05:40:59;;;;;;;4.95;2.60;;;9.40;99.90;;;;;;5055533;28;20123;-83
2022/03/14 05:43:26;;;;;;;8.13;2.80;;;9.40;99.90;;;;;;5032403;28;20689;-84
2022/03/14 05:45:53;;;;;;;5.00;2.47;;;9.40;99.90;;;;;;5034409;28;20079;-83
2022/03/14 05:48:19;;;;;;;4.55;2.72;;;9.40;99.90;;;;;;5047653;28;20140;-84
2022/03/14 05:50:45;;;;;;;5.25;2.67;;;9.40;99.90;;;;;;5028449;28;20518;-84
2022/03/14 05:53:12;;;;;;;4.97;2.45;;;9.40;99.90;;;;;;5030824;28;20045;-84
2022/03/14 05:55:39;;;;;;;5.47;2.67;;;9.40;99.90;;;;;;5058662;28;20052;-84
2022/03/14 05:58:06;;;;;;;5.45;2.80;;;9.40;99.90;;;;;;5030778;28;20806;-84
2022/03/14 06:00:33;;;;;;;4.97;2.67;;;9.40;99.90;;;;;;5036803;28;20152;-84
2022/03/14 06:02:59;;;;;;;5.95;3.22;;;9.40;99.90;;;;;;5033137;28;20048;-83
2022/03/14 06:05:25;;;;;;;5.53;3.00;;;9.40;99.90;;;;;;5036550;28;20037;-84
2022/03/14 06:07:51;;;;;;;6.75;3.30;;;9.80;99.90;;;;;;5027689;28;20048;-83
2022/03/14 06:10:17;;;;;;;5.47;3.10;;;9.40;99.90;;;;;;5045976;28;20077;-83
2022/03/14 06:12:43;;;;;;;5.43;3.08;;;9.40;99.90;;;;;;5048962;28;20658;-84
2022/03/14 06:15:12;;;;;;;6.50;3.63;;;9.40;99.90;;;;;;5038968;28;20064;-83
2022/03/14 06:17:41;;;;;;;5.65;3.15;;;9.40;99.90;;;;;;5058150;28;20049;-84
2022/03/14 06:20:08;;;;;;;5.30;3.05;;;9.40;99.90;;;;;;5057328;28;20147;-83
2022/03/14 06:22:38;;;;;;;6.70;3.72;;;9.40;99.90;;;;;;5055813;28;20044;-84
2022/03/14 06:25:04;;;;;;;6.20;3.53;;;9.30;99.90;;;;;;5057974;28;20846;-84
2022/03/14 06:27:30;;;;;;;5.75;3.22;;;9.40;99.90;;;;;;5057194;28;20069;-86
2022/03/14 06:29:55;;;;;;;5.90;3.10;;;9.30;99.90;;;;;;5053782;28;22614;-88
2022/03/14 06:32:21;;;;;;;6.75;3.30;;;9.30;99.90;;;;;;5053678;28;20055;-90
2022/03/14 06:34:46;;;;;;;6.35;3.60;;;9.30;99.90;;;;;;5051020;28;20052;-88
2022/03/14 06:37:12;;;;;;;6.35;3.38;;;9.30;99.90;;;;;;5049761;28;20053;-87
2022/03/14 06:39:38;;;;;;;6.72;3.90;;;9.30;99.90;;;;;;5026872;28;20126;-88
2022/03/14 06:42:09;;;;;;;6.47;3.72;;;9.30;99.90;;;;;;5058368;28;20144;-88
2022/03/14 06:44:38;;;;;;;5.93;3.60;;;9.30;99.90;;;;;;5057996;28;20769;-88
2022/03/14 06:47:05;;;;;;;7.47;3.78;;;9.30;99.90;;;;;;5058632;28;20041;-88
2022/03/14 06:49:30;;;;;;;6.50;3.95;;;9.30;99.90;;;;;;5048123;28;20069;-86
2022/03/14 06:51:56;;;;;;;7.18;4.00;;;9.20;99.90;;;;;;5056590;28;20114;-85
2022/03/14 06:54:22;;;;;;;8.05;4.15;;;9.20;99.90;;;;;;5049284;28;20052;-87
2022/03/14 06:56:49;;;;;;;5.95;3.65;;;9.20;99.90;;;;;;5027442;28;20744;-87
2022/03/14 06:59:14;;;;;;;6.13;3.60;;;9.20;99.90;;;;;;5050322;28;20738;-87
2022/03/14 07:01:40;;;;;;;6.38;3.88;;;9.20;99.90;;;;;;5056309;28;20055;-86
2022/03/14 07:04:06;;;;;;;6.63;3.95;;;9.20;99.90;;;;;;5052002;28;20047;-85
2022/03/14 07:06:32;;;;;;;7.25;4.15;;;9.20;99.90;;;;;;5056805;28;20499;-88
2022/03/14 07:08:57;;;;;;;8.23;4.47;;;9.20;99.90;;;;;;5050928;28;20039;-86
2022/03/14 07:11:23;;;;;;;9.45;4.60;;;9.20;99.90;;;;;;5036164;28;20055;-87
2022/03/14 07:13:48;;;;;;;7.82;4.55;;;9.20;99.90;;;;;;5056466;28;20044;-88
2022/03/14 07:16:14;;;;;;;6.93;4.53;;;9.10;99.90;;;;;;5056010;28;20593;-89
2022/03/14 07:18:40;;;;;;;7.28;4.55;;;9.10;99.90;;;;;;5052341;28;22125;-89
2022/03/14 07:21:05;;;;;;;7.05;4.38;;;9.10;99.90;;;;;;5059155;28;20130;-87
2022/03/14 07:23:31;;;;;;;7.53;4.03;;;9.10;99.90;;;;;;5055405;28;20040;-90
2022/03/14 07:25:56;;;;;;;8.05;4.57;;;9.10;99.90;;;;;;5048363;28;20045;-81
2022/03/14 07:28:22;;;;;;;7.93;4.25;;;9.10;99.90;;;;;;5056929;28;20071;-88
2022/03/14 07:30:47;;;;;;;7.63;5.00;;;9.10;99.90;;;;;;5043259;28;20049;-87
2022/03/14 07:33:13;;;;;;;9.43;4.38;;;9.10;99.90;;;;;;5029341;28;20698;-88
2022/03/14 07:35:39;;;;;;;7.47;4.40;;;9.10;99.90;;;;;;5054338;28;20160;-86
2022/03/14 07:38:05;;;;;;;7.63;4.82;;;9.20;99.90;;;;;;5059050;28;20151;-82
2022/03/14 07:40:32;;;;;;;7.80;4.40;;;9.20;99.90;;;;;;5056132;28;20067;-83
2022/03/14 07:42:59;;;;;;;8.57;4.90;;;9.20;99.90;;;;;;5054056;28;21201;-82
2022/03/14 07:45:26;;;;;;;8.15;4.78;;;9.20;99.90;;;;;;5057171;28;20048;-83
2022/03/14 07:47:53;;;;;;;7.28;4.95;;;9.20;99.90;;;;;;5048907;28;20043;-84
2022/03/14 07:50:19;;;;;;;9.70;5.82;;;9.20;99.90;;;;;;5054263;28;20094;-83
2022/03/14 07:52:45;;;;;;;7.65;4.53;;;9.20;99.90;;;;;;5049480;28;20127;-83
2022/03/14 07:55:12;;;;;;;9.40;4.78;;;9.20;99.90;;;;;;5042696;28;20045;-87
2022/03/14 07:57:38;;;;;;;8.77;5.05;;;9.20;99.90;;;;;;5042388;28;20060;-89
2022/03/14 08:00:08;;;;;;;7.45;5.28;;;9.20;99.90;;;;;;5053993;28;20115;-87
2022/03/14 08:02:34;;;;;;;9.55;5.55;;;9.20;99.90;;;;;;5048194;28;20082;-81
2022/03/14 08:05:00;;;;;;;8.73;5.88;;;9.10;99.90;;;;;;5048633;28;20048;-81
2022/03/14 08:07:28;;;;;;;7.55;4.93;;;9.20;99.90;;;;;;5048380;28;20532;-81
2022/03/14 08:09:54;;;;;;;8.82;5.68;;;9.10;99.90;;;;;;5026098;28;20143;-81
2022/03/14 08:12:21;;;;;;;8.25;5.40;;;9.20;99.90;;;;;;5045427;28;20076;-81
2022/03/14 08:14:47;;;;;;;10.25;5.82;;;9.20;99.90;;;;;;5036567;28;20036;-80
2022/03/14 08:17:13;;;;;;;8.35;5.13;;;9.20;99.90;;;;;;5032060;28;20044;-80
2022/03/14 08:19:39;;;;;;;8.60;5.25;;;9.20;99.90;;;;;;5053709;28;20052;-81
2022/03/14 08:22:05;;;;;;;10.57;5.22;;;9.20;99.90;;;;;;5049426;28;20127;-81
2022/03/14 08:24:31;;;;;;;7.93;5.22;;;9.30;99.90;;;;;;5044156;28;20415;-80
2022/03/14 08:26:57;;;;;;;8.70;5.78;;;9.30;99.90;;;;;;5036566;28;20053;-82
2022/03/14 08:29:22;;;;;;;9.88;6.15;;;9.30;99.90;;;;;;5050853;28;20055;-82
2022/03/14 08:31:48;;;;;;;8.73;5.60;;;9.30;99.90;;;;;;5053349;28;20048;-82
2022/03/14 08:34:14;;;;;;;9.23;5.72;;;9.30;99.90;;;;;;5058816;28;20053;-80
2022/03/14 08:36:42;;;;;;;10.38;6.20;;;9.30;99.90;;;;;;5045413;28;20045;-79
2022/03/14 08:39:09;;;;;;;9.18;6.10;;;9.40;99.90;;;;;;5050271;28;20128;-85
2022/03/14 08:41:39;;;;;;;10.70;5.88;;;9.40;99.90;;;;;;5037877;28;20281;-89
2022/03/14 08:44:06;;;;;;;10.43;6.13;;;9.40;99.90;;;;;;5040152;28;20058;-88
2022/03/14 08:46:31;;;;;;;9.02;5.90;;;9.40;99.90;;;;;;5050249;28;20472;-89
2022/03/14 08:48:57;;;;;;;9.65;6.28;;;9.50;99.90;;;;;;5037837;28;20048;-90
2022/03/14 08:51:24;;;;;;;10.38;6.18;;;9.50;99.90;;;;;;5043446;28;20045;-88
2022/03/14 08:53:49;;;;;;;9.88;6.43;;;9.50;99.90;;;;;;5028143;28;20049;-87
2022/03/14 08:56:15;;;;;;;9.30;6.28;;;9.50;99.90;;;;;;5038307;28;20377;-88
2022/03/14 08:58:40;;;;;;;10.25;6.35;;;9.50;99.90;;;;;;5041387;28;20811;-87
2022/03/14 09:01:07;;;;;;;10.45;6.20;;;9.50;99.90;;;;;;5043218;28;20099;-86
2022/03/14 09:03:33;;;;;;;10.27;6.47;;;9.50;99.90;;;;;;5049010;28;20515;-88
2022/03/14 09:05:58;;;;;;;10.30;6.38;;;9.50;99.90;;;;;;5054304;28;20079;-86
2022/03/14 09:08:27;;;;;;;10.13;6.50;;;9.50;99.90;;;;;;5033082;28;20432;-86
2022/03/14 09:10:58;;;;;;;9.63;6.65;;;9.60;99.90;;;;;;5045338;28;20048;-86
2022/03/14 09:13:24;;;;;;;9.43;6.47;;;9.60;99.90;;;;;;5050283;28;20051;-86
2022/03/14 09:15:50;;;;;;;11.93;7.43;;;9.60;99.90;;;;;;5043290;28;20041;-87
2022/03/14 09:18:16;;;;;;;10.73;7.00;;;9.60;99.90;;;;;;5043693;28;20041;-87
2022/03/14 09:20:42;;;;;;;10.00;6.55;;;9.60;99.90;;;;;;5054007;28;20053;-86
2022/03/14 09:23:09;;;;;;;10.57;7.10;;;9.60;99.90;;;;;;5041796;28;20420;-83
2022/03/14 09:25:35;;;;;;;11.55;6.82;;;9.60;99.90;;;;;;5041726;28;20468;-83
2022/03/14 09:28:01;;;;;;;11.77;6.97;;;9.60;99.90;;;;;;5043361;28;20152;-81
2022/03/14 09:30:27;;;;;;;11.05;7.05;;;9.60;99.90;;;;;;5047519;28;20123;-82
2022/03/14 09:32:54;;;;;;;10.85;7.32;;;9.70;99.90;;;;;;5048589;28;20140;-88
2022/03/14 09:35:21;;;;;;;11.02;7.55;;;9.70;99.90;;;;;;5051716;28;20048;-83
2022/03/14 09:37:47;;;;;;;11.90;7.70;;;9.70;99.90;;;;;;5049807;28;20041;-86
2022/03/14 09:40:17;;;;;;;11.90;7.90;;;9.70;99.90;;;;;;5043029;28;20796;-87
2022/03/14 09:42:48;;;;;;;11.20;7.47;;;9.70;99.90;;;;;;5058545;28;20056;-87
2022/03/14 09:45:14;;;;;;;13.27;8.35;;;9.70;99.90;;;;;;5050081;28;20095;-88
2022/03/14 09:47:49;;;;;;;13.07;8.00;;;9.70;99.90;;;;;;5041567;28;20032;-88
2022/03/14 09:50:26;;;;;;;11.55;7.50;;;9.80;99.90;;;;;;5040407;28;20051;-87
2022/03/14 09:52:53;;;;;;;12.10;7.72;;;9.80;99.90;;;;;;5043418;28;20055;-88
2022/03/14 09:55:20;;;;;;;12.43;8.10;;;9.80;99.90;;;;;;5041722;28;20152;-91
2022/03/14 09:57:45;;;;;;;11.55;7.45;;;9.80;99.90;;;;;;5045023;28;20040;-90
2022/03/14 10:00:14;;;;;;;13.93;8.80;;;9.80;99.90;;;;;;5040996;28;20087;-87
2022/03/14 10:02:42;;;;;;;12.95;8.75;;;9.80;99.90;;;;;;5039637;28;20674;-87
2022/03/14 10:05:10;;;;;;;11.82;8.48;;;9.80;99.90;;;;;;5022877;28;20112;-87
2022/03/14 10:07:36;;;;;;;16.50;10.18;;;9.80;99.90;;;;;;5044348;28;20047;-88
2022/03/14 10:10:04;;;;;;;16.10;10.60;;;9.70;99.90;;;;;;5048424;28;20048;-88
2022/03/14 10:12:30;;;;;;;18.13;11.35;;;9.70;99.90;;;;;;5031672;28;20118;-87
2022/03/14 10:14:56;;;;;;;19.73;12.30;;;9.70;99.90;;;;;;5044529;28;20040;-87
2022/03/14 10:17:21;;;;;;;19.55;12.95;;;9.70;99.90;;;;;;5051719;28;20045;-87
2022/03/14 10:19:55;;;;;;;18.45;10.98;;;9.60;99.90;;;;;;5028449;28;20049;-87
2022/03/14 10:22:21;;;;;;;18.00;11.00;;;9.60;99.90;;;;;;5048507;28;20068;-91
2022/03/14 10:24:48;;;;;;;19.45;11.70;;;9.50;99.90;;;;;;5052680;28;20155;-91
2022/03/14 10:27:18;;;;;;;19.60;8.57;;;9.50;99.90;;;;;;5048457;28;20066;-87
2022/03/14 10:29:46;;;;;;;14.20;7.30;;;9.40;99.90;;;;;;5048747;28;20602;-92
2022/03/14 10:32:19;;;;;;;13.85;7.70;;;9.20;99.90;;;;;;5043184;28;20103;-86
2022/03/14 10:34:52;;;;;;;15.98;6.72;;;9.40;99.90;;;;;;5041825;28;20048;-84
2022/03/14 10:37:18;;;;;;;15.98;7.60;;;9.30;99.90;;;;;;5043765;28;20044;-85
2022/03/14 10:39:44;;;;;;;14.10;7.22;;;9.30;99.90;;;;;;5044860;28;20095;-82
2022/03/14 10:42:13;;;;;;;17.90;8.13;;;9.30;99.90;;;;;;5039970;28;20593;-81
2022/03/14 10:44:42;;;;;;;16.42;8.50;;;9.30;99.90;;;;;;5042144;28;20127;-81
2022/03/14 10:47:11;;;;;;;17.90;8.50;;;9.20;99.90;;;;;;5039605;28;20098;-80
2022/03/14 10:49:45;;;;;;;20.20;8.75;;;9.30;99.90;;;;;;5023683;28;20060;-80
2022/03/14 10:52:17;;;;;;;18.23;8.82;;;9.30;99.90;;;;;;5047167;28;20107;-81
2022/03/14 10:54:43;;;;;;;21.15;10.07;;;9.30;99.90;;;;;;5026418;28;20849;-80
2022/03/14 10:57:12;;;;;;;20.95;9.43;;;9.30;99.90;;;;;;5060366;28;20052;-80
2022/03/14 10:59:43;;;;;;;17.48;8.43;;;9.30;99.90;;;;;;5040886;28;20754;-81
2022/03/14 11:02:12;;;;;;;16.45;8.90;;;9.30;99.90;;;;;;5043823;28;20036;-81
2022/03/14 11:04:44;;;;;;;22.48;11.25;;;9.40;99.90;;;;;;5022164;28;20056;-80
2022/03/14 11:07:10;;;;;;;20.58;9.90;;;9.40;99.90;;;;;;5051916;28;20186;-81
2022/03/14 11:09:38;;;;;;;21.77;10.73;;;9.50;99.90;;;;;;5044943;28;20052;-79
2022/03/14 11:12:27;;;;;;;19.20;10.40;;;9.60;99.90;;;;;;5032941;28;20064;-79
2022/03/14 11:15:05;;;;;;;19.30;10.70;;;9.70;99.90;;;;;;5045673;28;20045;-81
2022/03/14 11:17:33;;;;;;;22.90;10.52;;;9.80;99.90;;;;;;5029153;28;20053;-81
2022/03/14 11:19:59;;;;;;;20.52;10.60;;;9.80;99.90;;;;;;5046877;28;20053;-81
2022/03/14 11:22:28;;;;;;;24.80;11.90;;;9.90;99.90;;;;;;5071012;28;20692;-81
2022/03/14 11:24:55;;;;;;;18.20;10.13;;;10.00;99.90;;;;;;5043162;28;20188;-81
2022/03/14 11:27:26;;;;;;;22.70;10.48;;;10.00;99.90;;;;;;5045344;28;20044;-81
2022/03/14 11:29:58;;;;;;;20.02;9.88;;;10.10;99.90;;;;;;5051406;28;20048;-81
2022/03/14 11:32:24;;;;;;;20.52;9.35;;;10.10;99.90;;;;;;5045780;28;20780;-81
2022/03/14 11:34:50;;;;;;;18.55;8.68;;;10.10;99.90;;;;;;5051351;28;20064;-81
2022/03/14 11:37:18;;;;;;;16.48;8.73;;;10.10;99.90;;;;;;5031360;28;20062;-81
2022/03/14 11:39:44;;;;;;;22.25;9.82;;;10.10;99.90;;;;;;5043548;28;20830;-81
2022/03/14 11:42:12;;;;;;;17.15;8.93;;;10.10;99.90;;;;;;5046720;28;20044;-80
2022/03/14 11:44:39;;;;;;;19.77;9.43;;;10.10;99.90;;;;;;5028964;28;20492;-81
2022/03/14 11:47:08;;;;;;;18.02;8.73;;;10.10;99.90;;;;;;5049597;28;20049;-80
2022/03/14 11:49:35;;;;;;;19.42;9.35;;;10.40;99.90;;;;;;5050406;28;20243;-81
2022/03/14 11:52:11;;;;;;;21.35;8.93;;;10.10;99.90;;;;;;5042724;28;20053;-80
2022/03/14 11:54:40;;;;;;;18.58;7.32;;;10.10;99.90;;;;;;5027958;28;20061;-81
2022/03/14 11:57:07;;;;;;;16.52;8.40;;;10.20;99.90;;;;;;5029917;28;20052;-81
2022/03/14 11:59:35;;;;;;;17.30;7.82;;;10.10;99.90;;;;;;5045285;28;20069;-81
2022/03/14 12:02:03;;;;;;;20.33;9.38;;;10.10;99.90;;;;;;5060260;28;20113;-81
2022/03/14 12:04:39;;;;;;;16.05;7.85;;;10.10;99.90;;;;;;5042331;28;20048;-80
2022/03/14 12:07:10;;;;;;;18.83;8.43;;;10.10;99.90;;;;;;5029929;28;20106;-83
2022/03/14 12:09:37;;;;;;;18.85;7.72;;;10.10;99.90;;;;;;5045532;28;20040;-80
2022/03/14 12:12:05;;;;;;;16.85;8.05;;;10.10;99.90;;;;;;5051642;28;21203;-80
2022/03/14 12:14:44;;;;;;;20.17;8.18;;;10.10;99.90;;;;;;5044111;28;20652;-80
2022/03/14 12:17:13;;;;;;;16.20;8.65;;;10.10;99.90;;;;;;5049586;28;20712;-81
2022/03/14 12:19:44;;;;;;;19.63;9.35;;;10.10;99.90;;;;;;5049033;28;20052;-81
2022/03/14 12:22:28;;;;;;;18.67;10.20;;;10.10;99.90;;;;;;5031586;28;20106;-80
2022/03/14 12:24:55;;;;;;;21.90;10.68;;;10.00;99.90;;;;;;5025565;28;20053;-80
2022/03/14 12:27:29;;;;;;;24.98;11.65;;;10.00;99.90;;;;;;5047029;28;20048;-81
2022/03/14 12:29:56;;;;;;;;;;;10.00;99.90;;;;;;5026611;28;20488;-81
2022/03/14 12:32:53;;;;;;;19.55;10.57;;;10.10;99.90;;;;;;5025329;28;20441;-79
2022/03/14 12:35:29;;;;;;;24.98;12.02;;;10.10;99.90;;;;;;5034989;28;20045;-79
2022/03/14 12:38:14;;;;;;;25.70;12.15;;;10.20;99.90;;;;;;5032552;28;20798;-79
2022/03/14 12:40:41;;;;;;;21.83;11.98;;;10.20;99.90;;;;;;5031790;28;20567;-80
2022/03/14 12:43:07;;;;;;;24.48;12.23;;;10.30;99.90;;;;;;5029320;28;20114;-80
2022/03/14 12:45:48;;;;;;;19.30;10.88;;;10.30;99.90;;;;;;5057591;28;20052;-80
2022/03/14 12:48:19;;;;;;;25.95;13.02;;;10.40;99.90;;;;;;5022969;28;20523;-78